| time (UTC) | temp C | wind direction | speed KPH | gust KPH | rain 1hr cm | rain 24hr cm | rain mn cm | humidity % | barometer mb |
| 20260507101003 | 8 | 310 | 11.3 | 25.7 | 0.00 | 0.00 | 0.00 | 53 | 1014.6 |
| 20260507100003 | 8 | 311 | 17.7 | 25.7 | 0.00 | 0.00 | 0.00 | 52 | 1014.5 |
| 20260507095003 | 9 | 311 | 19.3 | 27.4 | 0.00 | 0.00 | 0.00 | 51 | 1014.5 |
| 20260507094213 | 9 | 312 | 11.3 | 25.7 | 0.00 | 0.00 | 0.00 | 50 | 1014.6 |
| 20260507093003 | 9 | 310 | 12.9 | 22.5 | 0.00 | 0.00 | 0.00 | 49 | 1014.6 |
| 20260507092003 | 9 | 311 | 4.8 | 14.5 | 0.00 | 0.00 | 0.00 | 49 | 1014.8 |
| 20260507091003 | 10 | 302 | 14.5 | 20.9 | 0.00 | 0.00 | 0.00 | 46 | 1014.6 |
| 20260507090004 | 10 | 299 | 14.5 | 20.9 | 0.00 | 0.00 | 0.00 | 46 | 1014.6 |
| 20260507085213 | 10 | 302 | 17.7 | 27.4 | 0.00 | 0.00 | 0.00 | 46 | 1014.5 |
| 20260507084213 | 10 | 306 | 19.3 | 25.7 | 0.00 | 0.00 | 0.00 | 48 | 1014.5 |
| 20260507083212 | 10 | 306 | 19.3 | 37.0 | 0.00 | 0.00 | 0.00 | 47 | 1014.7 |
| 20260507082213 | 10 | 302 | 22.5 | 30.6 | 0.00 | 0.00 | 0.00 | 46 | 1014.3 |
| 20260507081212 | 10 | 300 | 22.5 | 35.4 | 0.00 | 0.00 | 0.00 | 47 | 1014.3 |
| 20260507080004 | 10 | 297 | 24.1 | 32.2 | 0.00 | 0.00 | 0.00 | 49 | 1014.4 |
| 20260507075004 | 10 | 299 | 24.1 | 35.4 | 0.00 | 0.00 | 0.00 | 54 | 1014.7 |
| 20260507074003 | 10 | 301 | 22.5 | 33.8 | 0.00 | 0.00 | 0.00 | 55 | 1014.9 |
| 20260507073214 | 10 | 302 | 25.7 | 40.2 | 0.00 | 0.00 | 0.00 | 53 | 1014.6 |
| 20260507072003 | 10 | 301 | 29.0 | 41.8 | 0.00 | 0.00 | 0.00 | 51 | 1014.5 |
| 20260507071004 | 10 | 306 | 27.4 | 40.2 | 0.00 | 0.00 | 0.00 | 49 | 1014.5 |
| 20260507070007 | 11 | 303 | 32.2 | 46.7 | 0.00 | 0.00 | 0.00 | 41 | 1014.1 |
| 20260507065003 | 10 | 306 | 32.2 | 45.1 | 0.00 | 0.00 | 0.00 | 52 | 1014.1 |
| 20260507064003 | 10 | 306 | 35.4 | 48.3 | 0.00 | 0.00 | 0.00 | 52 | 1014.0 |
| 20260507063214 | 11 | 303 | 33.8 | 49.9 | 0.00 | 0.00 | 0.00 | 50 | 1013.9 |
| 20260507062004 | 11 | 301 | 37.0 | 51.5 | 0.00 | 0.00 | 0.00 | 48 | 1013.8 |
| 20260507061003 | 11 | 301 | 33.8 | 51.5 | 0.00 | 0.00 | 0.00 | 49 | 1013.8 |
| 20260507060003 | 11 | 299 | 25.7 | 37.0 | 0.00 | 0.00 | 0.00 | 50 | 1014.4 |
| 20260507055003 | 11 | 289 | 20.9 | 37.0 | 0.00 | 0.00 | 0.00 | 50 | 1014.6 |
| 20260507054003 | 11 | 296 | 30.6 | 48.3 | 0.00 | 0.00 | 0.00 | 49 | 1014.1 |
| 20260507053004 | 12 | 303 | 35.4 | 48.3 | 0.00 | 0.00 | 0.00 | 48 | 1014.0 |
| 20260507052003 | 12 | 302 | 40.2 | 51.5 | 0.00 | 0.00 | 0.00 | 45 | 1014.2 |
| 20260507051213 | 12 | 307 | 33.8 | 48.3 | 0.00 | 0.00 | 0.00 | 45 | 1014.6 |
| 20260507050003 | 12 | 301 | 32.2 | 54.7 | 0.00 | 0.00 | 0.00 | 47 | 1014.8 |
| 20260507045003 | 12 | 299 | 29.0 | 43.5 | 0.00 | 0.00 | 0.00 | 45 | 1014.8 |
| 20260507044003 | 12 | 296 | 25.7 | 40.2 | 0.00 | 0.00 | 0.00 | 48 | 1015.0 |
| 20260507043213 | 12 | 299 | 24.1 | 30.6 | 0.00 | 0.00 | 0.00 | 47 | 1015.1 |
| 20260507042003 | 13 | 300 | 22.5 | 33.8 | 0.00 | 0.00 | 0.00 | 46 | 1015.1 |
| 20260507041003 | 13 | 299 | 22.5 | 32.2 | 0.00 | 0.00 | 0.00 | 44 | 1015.1 |
| 20260507040003 | 13 | 299 | 20.9 | 32.2 | 0.00 | 0.00 | 0.00 | 43 | 1015.2 |
| 20260507035003 | 13 | 301 | 22.5 | 35.4 | 0.00 | 0.00 | 0.00 | 43 | 1015.2 |
| 20260507034003 | 13 | 306 | 20.9 | 30.6 | 0.00 | 0.00 | 0.00 | 44 | 1015.3 |
| 20260507033003 | 13 | 308 | 16.1 | 27.4 | 0.00 | 0.00 | 0.00 | 45 | 1015.2 |
| 20260507032003 | 13 | 308 | 12.9 | 22.5 | 0.00 | 0.00 | 0.00 | 46 | 1015.2 |
| 20260507031003 | 14 | 308 | 16.1 | 25.7 | 0.00 | 0.00 | 0.00 | 44 | 1015.2 |
| 20260507030003 | 15 | 305 | 19.3 | 29.0 | 0.00 | 0.00 | 0.00 | 42 | 1015.1 |
| 20260507025213 | 15 | 295 | 20.9 | 37.0 | 0.00 | 0.00 | 0.00 | 39 | 1015.0 |
| 20260507024003 | 15 | 296 | 17.7 | 29.0 | 0.00 | 0.00 | 0.00 | 37 | 1015.2 |
| 20260507023003 | 15 | 300 | 19.3 | 30.6 | 0.00 | 0.00 | 0.00 | 37 | 1015.2 |
| 20260507022003 | 16 | 298 | 20.9 | 30.6 | 0.00 | 0.00 | 0.00 | 36 | 1015.3 |
| 20260507021003 | 15 | 296 | 16.1 | 24.1 | 0.00 | 0.00 | 0.00 | 36 | 1015.3 |
| 20260507020003 | 15 | 297 | 20.9 | 35.4 | 0.00 | 0.00 | 0.00 | 36 | 1015.3 |
| 20260507015003 | 16 | 290 | 25.7 | 41.8 | 0.00 | 0.00 | 0.00 | 35 | 1015.2 |
| 20260507014004 | 16 | 290 | 29.0 | 45.1 | 0.00 | 0.00 | 0.00 | 32 | 1015.1 |
| 20260507013003 | 16 | 290 | 29.0 | 48.3 | 0.00 | 0.00 | 0.00 | 33 | 1015.1 |
| 20260507012003 | 16 | 292 | 27.4 | 43.5 | 0.00 | 0.00 | 0.00 | 34 | 1015.2 |
| 20260507011214 | 16 | 294 | 24.1 | 35.4 | 0.00 | 0.00 | 0.00 | 36 | 1015.1 |
| 20260507010003 | 16 | 298 | 24.1 | 35.4 | 0.00 | 0.00 | 0.00 | 34 | 1015.2 |
| 20260507005004 | 16 | 301 | 19.3 | 35.4 | 0.00 | 0.00 | 0.00 | 32 | 1015.2 |
| 20260507004003 | 16 | 296 | 20.9 | 30.6 | 0.00 | 0.00 | 0.00 | 31 | 1015.2 |
| 20260507003003 | 16 | 289 | 20.9 | 33.8 | 0.00 | 0.00 | 0.00 | 31 | 1015.3 |
| 20260507002213 | 16 | 293 | 24.1 | 41.8 | 0.00 | 0.00 | 0.00 | 30 | 1015.3 |
| 20260507001003 | 16 | 287 | 20.9 | 29.0 | 0.00 | 0.00 | 0.00 | 31 | 1015.1 |
| 20260507000004 | 16 | 288 | 22.5 | 32.2 | 0.00 | 0.00 | 0.00 | 31 | 1015.2 |
| 20260506235003 | 17 | 297 | 24.1 | 35.4 | 0.00 | 0.00 | 0.00 | 31 | 1015.3 |
| 20260506234213 | 17 | 296 | 24.1 | 35.4 | 0.00 | 0.00 | 0.00 | 30 | 1015.3 |
| 20260506233003 | 17 | 296 | 22.5 | 35.4 | 0.00 | 0.00 | 0.00 | 30 | 1015.2 |
| 20260506232003 | 17 | 297 | 22.5 | 33.8 | 0.00 | 0.00 | 0.00 | 31 | 1015.2 |
| 20260506231003 | 17 | 297 | 24.1 | 32.2 | 0.00 | 0.00 | 0.00 | 31 | 1015.2 |
| 20260506230005 | 17 | 292 | 20.9 | 33.8 | 0.00 | 0.00 | 0.00 | 29 | 1015.2 |
| 20260506225003 | 18 | 292 | 22.5 | 35.4 | 0.00 | 0.00 | 0.00 | 27 | 1015.3 |
| 20260506224003 | 18 | 292 | 20.9 | 30.6 | 0.00 | 0.00 | 0.00 | 27 | 1015.4 |
| 20260506223004 | 18 | 290 | 20.9 | 33.8 | 0.00 | 0.00 | 0.00 | 25 | 1015.5 |
| 20260506222003 | 18 | 291 | 22.5 | 37.0 | 0.00 | 0.00 | 0.00 | 26 | 1015.6 |
| 20260506221003 | 18 | 291 | 25.7 | 37.0 | 0.00 | 0.00 | 0.00 | 25 | 1015.6 |
| 20260506220003 | 18 | 292 | 25.7 | 38.6 | 0.00 | 0.00 | 0.00 | 22 | 1015.7 |
| 20260506215003 | 19 | 287 | 22.5 | 35.4 | 0.00 | 0.00 | 0.00 | 22 | 1015.6 |
| 20260506214003 | 19 | 284 | 19.3 | 32.2 | 0.00 | 0.00 | 0.00 | 23 | 1015.6 |
| 20260506213003 | 19 | 276 | 19.3 | 29.0 | 0.00 | 0.00 | 0.00 | 24 | 1015.5 |
| 20260506212212 | 20 | 275 | 19.3 | 29.0 | 0.00 | 0.00 | 0.00 | 23 | 1015.6 |
| 20260506211003 | 20 | 292 | 24.1 | 37.0 | 0.00 | 0.00 | 0.00 | 25 | 1015.6 |
| 20260506210212 | 20 | 293 | 25.7 | 38.6 | 0.00 | 0.00 | 0.00 | 25 | 1015.5 |
| 20260506205214 | 20 | 279 | 25.7 | 37.0 | 0.00 | 0.00 | 0.00 | 26 | 1015.4 |
| 20260506204003 | 21 | 276 | 27.4 | 40.2 | 0.00 | 0.00 | 0.00 | 24 | 1015.3 |
| 20260506203003 | 22 | 288 | 20.9 | 38.6 | 0.00 | 0.00 | 0.00 | 25 | 1015.2 |
| 20260506202003 | 22 | 273 | 17.7 | 33.8 | 0.00 | 0.00 | 0.00 | 28 | 1015.1 |
| 20260506201003 | 21 | 280 | 16.1 | 24.1 | 0.00 | 0.00 | 0.00 | 29 | 1015.2 |
| 20260506200004 | 21 | 259 | 14.5 | 29.0 | 0.00 | 0.00 | 0.00 | 32 | 1015.3 |
| 20260506195003 | 21 | 241 | 17.7 | 27.4 | 0.00 | 0.00 | 0.00 | 30 | 1015.2 |
| 20260506194003 | 21 | 265 | 14.5 | 25.7 | 0.00 | 0.00 | 0.00 | 32 | 1015.3 |
| 20260506193003 | 21 | 256 | 19.3 | 35.4 | 0.00 | 0.00 | 0.00 | 32 | 1015.1 |
| 20260506192003 | 21 | 264 | 17.7 | 29.0 | 0.00 | 0.00 | 0.00 | 33 | 1015.3 |
| 20260506191003 | 20 | 291 | 17.7 | 25.7 | 0.00 | 0.00 | 0.00 | 35 | 1015.4 |
| 20260506190004 | 21 | 299 | 16.1 | 25.7 | 0.00 | 0.00 | 0.00 | 33 | 1015.6 |
| 20260506185003 | 21 | 278 | 14.5 | 32.2 | 0.00 | 0.00 | 0.00 | 34 | 1015.5 |
| 20260506184213 | 20 | 262 | 12.9 | 25.7 | 0.00 | 0.00 | 0.00 | 33 | 1015.6 |
| 20260506183004 | 20 | 295 | 17.7 | 29.0 | 0.00 | 0.00 | 0.00 | 35 | 1015.5 |
| 20260506182003 | 20 | 290 | 17.7 | 27.4 | 0.00 | 0.00 | 0.00 | 35 | 1015.5 |
| 20260506181004 | 20 | 295 | 17.7 | 25.7 | 0.00 | 0.00 | 0.00 | 35 | 1015.4 |
| 20260506180004 | 20 | 287 | 16.1 | 29.0 | 0.00 | 0.00 | 0.00 | 36 | 1015.4 |
| 20260506175004 | 19 | 288 | 16.1 | 29.0 | 0.00 | 0.00 | 0.00 | 36 | 1015.5 |
| 20260506174003 | 19 | 286 | 12.9 | 20.9 | 0.00 | 0.00 | 0.00 | 38 | 1015.4 |
| 20260506173004 | 19 | 281 | 16.1 | 25.7 | 0.00 | 0.00 | 0.00 | 37 | 1015.4 |
| 20260506172003 | 19 | 293 | 16.1 | 22.5 | 0.00 | 0.00 | 0.00 | 37 | 1015.4 |
| 20260506171005 | 19 | 292 | 17.7 | 27.4 | 0.00 | 0.00 | 0.00 | 36 | 1015.4 |
| 20260506170004 | 18 | 293 | 19.3 | 30.6 | 0.00 | 0.00 | 0.00 | 38 | 1015.4 |
| 20260506165003 | 18 | 296 | 17.7 | 25.7 | 0.00 | 0.00 | 0.00 | 37 | 1015.4 |
| 20260506164213 | 18 | 298 | 19.3 | 29.0 | 0.00 | 0.00 | 0.00 | 38 | 1015.4 |
| 20260506163003 | 18 | 300 | 19.3 | 29.0 | 0.00 | 0.00 | 0.00 | 38 | 1015.4 |
| 20260506162003 | 18 | 300 | 20.9 | 30.6 | 0.00 | 0.00 | 0.00 | 38 | 1015.4 |
| 20260506161213 | 18 | 303 | 16.1 | 29.0 | 0.00 | 0.00 | 0.00 | 40 | 1015.4 |
| 20260506160003 | 17 | 305 | 16.1 | 32.2 | 0.00 | 0.00 | 0.00 | 38 | 1015.4 |
| 20260506155212 | 17 | 306 | 16.1 | 27.4 | 0.00 | 0.00 | 0.00 | 39 | 1015.3 |
| 20260506154003 | 17 | 304 | 19.3 | 30.6 | 0.00 | 0.00 | 0.00 | 40 | 1015.3 |
| 20260506153004 | 17 | 301 | 24.1 | 33.8 | 0.00 | 0.00 | 0.00 | 39 | 1015.4 |
| 20260506152003 | 17 | 302 | 24.1 | 33.8 | 0.00 | 0.00 | 0.00 | 38 | 1015.4 |
| 20260506151003 | 17 | 301 | 20.9 | 30.6 | 0.00 | 0.00 | 0.00 | 39 | 1015.4 |
| 20260506150003 | 17 | 301 | 17.7 | 25.7 | 0.00 | 0.00 | 0.00 | 39 | 1015.4 |
| 20260506145003 | 17 | 300 | 19.3 | 29.0 | 0.00 | 0.00 | 0.00 | 37 | 1015.3 |
| 20260506144003 | 16 | 299 | 17.7 | 27.4 | 0.00 | 0.00 | 0.00 | 37 | 1015.2 |
| 20260506143003 | 16 | 302 | 16.1 | 25.7 | 0.00 | 0.00 | 0.00 | 37 | 1015.3 |
| 20260506142003 | 16 | 306 | 16.1 | 27.4 | 0.00 | 0.00 | 0.00 | 38 | 1015.2 |
| 20260506141003 | 16 | 304 | 17.7 | 29.0 | 0.00 | 0.00 | 0.00 | 37 | 1015.2 |
| 20260506140003 | 16 | 306 | 12.9 | 22.5 | 0.00 | 0.00 | 0.00 | 38 | 1015.3 |
| 20260506135214 | 15 | 308 | 9.7 | 19.3 | 0.00 | 0.00 | 0.00 | 40 | 1015.2 |
| 20260506134003 | 15 | 307 | 11.3 | 16.1 | 0.00 | 0.00 | 0.00 | 42 | 1015.2 |
| 20260506133003 | 15 | 308 | 9.7 | 14.5 | 0.00 | 0.00 | 0.00 | 43 | 1015.1 |
| 20260506132003 | 14 | 301 | 6.4 | 9.7 | 0.00 | 0.00 | 0.00 | 43 | 1015.1 |
| 20260506131003 | 13 | 300 | 9.7 | 14.5 | 0.00 | 0.00 | 0.00 | 44 | 1015.1 |
| 20260506130004 | 13 | 307 | 11.3 | 14.5 | 0.00 | 0.00 | 0.00 | 44 | 1015.1 |
| 20260506125003 | 13 | 309 | 11.3 | 16.1 | 0.00 | 0.00 | 0.00 | 43 | 1015.1 |
| 20260506124003 | 13 | 311 | 12.9 | 17.7 | 0.00 | 0.00 | 0.00 | 44 | 1015.0 |
| 20260506123003 | 14 | 305 | 17.7 | 24.1 | 0.00 | 0.00 | 0.00 | 43 | 1015.0 |
| 20260506122213 | 14 | 301 | 19.3 | 24.1 | 0.00 | 0.00 | 0.00 | 42 | 1014.9 |
| 20260506121003 | 14 | 303 | 19.3 | 27.4 | 0.00 | 0.00 | 0.00 | 42 | 1014.9 |
| 20260506120004 | 15 | 305 | 20.9 | 29.0 | 0.00 | 0.00 | 0.00 | 42 | 1014.8 |
| 20260506115003 | 15 | 305 | 20.9 | 30.6 | 0.00 | 0.00 | 0.00 | 42 | 1014.8 |
| 20260506114003 | 14 | 307 | 19.3 | 24.1 | 0.00 | 0.00 | 0.00 | 42 | 1014.9 |
| 20260506113213 | 15 | 307 | 19.3 | 25.7 | 0.00 | 0.00 | 0.00 | 43 | 1014.8 |
| 20260506112003 | 15 | 310 | 17.7 | 24.1 | 0.00 | 0.00 | 0.00 | 42 | 1014.9 |
| 20260506111003 | 15 | 310 | 19.3 | 29.0 | 0.00 | 0.00 | 0.00 | 42 | 1014.9 |
| 20260506110003 | 15 | 309 | 19.3 | 29.0 | 0.00 | 0.00 | 0.00 | 42 | 1014.7 |
| 20260506105004 | 15 | 307 | 20.9 | 33.8 | 0.00 | 0.00 | 0.00 | 40 | 1014.7 |
| 20260506104003 | 15 | 308 | 19.3 | 27.4 | 0.00 | 0.00 | 0.00 | 41 | 1014.7 |
| 20260506103003 | 15 | 308 | 17.7 | 24.1 | 0.00 | 0.00 | 0.00 | 41 | 1014.6 |
| 20260506102003 | 15 | 308 | 16.1 | 22.5 | 0.00 | 0.00 | 0.00 | 41 | 1014.5 |